Old Mystic, CT (06372)

2:24 AM EDT on July 28, 2016 (GMT -0400)
Mystic | | Change Station

Elev 206 ft 41.38 °N, 71.98 °W | Updated 2 minutes ago

Clear
Clear
72.1 °F
Feels Like 72.1 °F
N
1.2
Wind Variable Wind from SW
Gusts 2.5 mph

Today
High -- | Low -- °F
--% Chance of Precip.
Yesterday
High -- | Low -- °F
Precip. -- in
Pressure 29.90 in
Visibility 10.0 miles
Clouds Clear
Dew Point 69 °F
Humidity 89%
Rainfall 0.00 in
Snow Depth Not available.
5:39 AM 8:08 PM
Waning Crescent, 35% visible
METAR KGON 280556Z AUTO 27003KT 10SM CLR 23/21 A2990 RMK AO2 SLP124 T02280206 10250 20228 56004
Pressure 29.90 in
Visibility 10.0 miles
Clouds Clear
Dew Point 69 °F
Humidity 89%
Rainfall 0.00 in
Snow Depth Not available.
5:39 AM 8:08 PM
Waning Crescent, 35% visible
METAR KGON 280556Z AUTO 27003KT 10SM CLR 23/21 A2990 RMK AO2 SLP124 T02280206 10250 20228 56004

10-Day Weather Forecast

Almanac

Astronomy

Jul. 28, 2016 Rise Set
Actual Time
Civil Twilight
Nautical Twilight
Astronomical Twilight
Moon
Length of Visible Light
Length of Day
Tomorrow will be .
, % of the Moon is Illuminated

Today's Extremes

State Highs State Lows

Community

WunderPhotos

Upload Photos

1,928,064 photos uploaded!

WunderBlog® & News

Nearby

Air Quality

  Air Quality AQ Index Pollutant
Not available.

Snow Depth

Station Depth Elevation

Earthquake Activity

City Distance Mag. Time & Date
Minimum magnitude displayed is 2.5.

Coastal Water Temperatures

Place Temperature

Stations

Nearby Weather Stations

Station Location Temp. Windchill Dew Point Humidity Wind Precip. Elev Updated Type
                   

Watches & Warnings

There are currently no watches in effect.